sensor_id;sensor_type;location;lat;lon;timestamp;pressure;altitude;pressure_sealevel;temperature;humidity
8705;BME280;4389;41.932;25.904;2022-12-10T00:01:26;100118.72;;;9.54;100.00
8705;BME280;4389;41.932;25.904;2022-12-10T00:03:53;100135.25;;;9.56;100.00
8705;BME280;4389;41.932;25.904;2022-12-10T00:06:22;100135.41;;;9.54;100.00
8705;BME280;4389;41.932;25.904;2022-12-10T00:08:49;100140.13;;;9.60;100.00
8705;BME280;4389;41.932;25.904;2022-12-10T00:11:18;100142.66;;;9.71;100.00
8705;BME280;4389;41.932;25.904;2022-12-10T00:13:46;100136.25;;;9.64;100.00
8705;BME280;4389;41.932;25.904;2022-12-10T00:16:16;100143.47;;;9.62;100.00
8705;BME280;4389;41.932;25.904;2022-12-10T00:18:44;100137.38;;;9.71;100.00
8705;BME280;4389;41.932;25.904;2022-12-10T00:21:13;100133.19;;;9.78;100.00
8705;BME280;4389;41.932;25.904;2022-12-10T00:23:49;100140.28;;;9.68;100.00
8705;BME280;4389;41.932;25.904;2022-12-10T00:26:18;100137.91;;;9.56;100.00
8705;BME280;4389;41.932;25.904;2022-12-10T00:28:45;100132.91;;;9.53;100.00
8705;BME280;4389;41.932;25.904;2022-12-10T00:31:14;100133.72;;;9.34;100.00
8705;BME280;4389;41.932;25.904;2022-12-10T00:33:43;100129.84;;;9.48;100.00
8705;BME280;4389;41.932;25.904;2022-12-10T00:36:12;100130.69;;;9.48;100.00
8705;BME280;4389;41.932;25.904;2022-12-10T00:38:40;100116.50;;;9.49;100.00
8705;BME280;4389;41.932;25.904;2022-12-10T00:41:08;100110.94;;;9.62;100.00
8705;BME280;4389;41.932;25.904;2022-12-10T00:43:35;100115.38;;;9.61;100.00
8705;BME280;4389;41.932;25.904;2022-12-10T00:46:02;100115.66;;;9.58;100.00
8705;BME280;4389;41.932;25.904;2022-12-10T00:48:29;100113.44;;;9.54;100.00
8705;BME280;4389;41.932;25.904;2022-12-10T00:51:00;100119.28;;;9.57;100.00
8705;BME280;4389;41.932;25.904;2022-12-10T00:53:28;100108.72;;;9.48;100.00
8705;BME280;4389;41.932;25.904;2022-12-10T00:55:56;100108.59;;;9.49;100.00
8705;BME280;4389;41.932;25.904;2022-12-10T00:58:25;100114.84;;;9.48;100.00
8705;BME280;4389;41.932;25.904;2022-12-10T01:00:52;100109.56;;;9.67;100.00
8705;BME280;4389;41.932;25.904;2022-12-10T01:03:19;100108.44;;;9.60;100.00
8705;BME280;4389;41.932;25.904;2022-12-10T01:05:46;100112.91;;;9.50;100.00
8705;BME280;4389;41.932;25.904;2022-12-10T01:08:15;100109.97;;;9.34;100.00
8705;BME280;4389;41.932;25.904;2022-12-10T01:10:42;100106.75;;;9.40;100.00
8705;BME280;4389;41.932;25.904;2022-12-10T01:13:09;100105.63;;;9.33;100.00
8705;BME280;4389;41.932;25.904;2022-12-10T01:15:37;100111.75;;;9.34;100.00
8705;BME280;4389;41.932;25.904;2022-12-10T01:18:04;100113.00;;;9.20;100.00
8705;BME280;4389;41.932;25.904;2022-12-10T01:20:35;100109.66;;;9.18;100.00
8705;BME280;4389;41.932;25.904;2022-12-10T01:23:02;100109.41;;;9.40;100.00
8705;BME280;4389;41.932;25.904;2022-12-10T01:25:31;100106.22;;;9.46;100.00
8705;BME280;4389;41.932;25.904;2022-12-10T01:27:58;100107.63;;;9.50;100.00
8705;BME280;4389;41.932;25.904;2022-12-10T01:30:25;100102.59;;;9.47;100.00
8705;BME280;4389;41.932;25.904;2022-12-10T01:32:52;100102.59;;;9.57;100.00
8705;BME280;4389;41.932;25.904;2022-12-10T01:35:18;100104.44;;;9.56;100.00
8705;BME280;4389;41.932;25.904;2022-12-10T01:37:45;100108.19;;;9.63;100.00
8705;BME280;4389;41.932;25.904;2022-12-10T01:40:12;100115.38;;;9.61;100.00
8705;BME280;4389;41.932;25.904;2022-12-10T01:42:40;100101.75;;;9.66;100.00
8705;BME280;4389;41.932;25.904;2022-12-10T01:45:10;100099.56;;;9.42;100.00
8705;BME280;4389;41.932;25.904;2022-12-10T01:47:38;100090.91;;;9.40;100.00
8705;BME280;4389;41.932;25.904;2022-12-10T01:50:07;100093.94;;;9.26;100.00
8705;BME280;4389;41.932;25.904;2022-12-10T01:52:35;100096.59;;;9.36;100.00
8705;BME280;4389;41.932;25.904;2022-12-10T01:55:08;100092.59;;;9.41;100.00
8705;BME280;4389;41.932;25.904;2022-12-10T01:57:35;100092.88;;;9.38;100.00
8705;BME280;4389;41.932;25.904;2022-12-10T02:00:05;100083.41;;;9.45;100.00
8705;BME280;4389;41.932;25.904;2022-12-10T02:02:40;100090.50;;;9.35;100.00
8705;BME280;4389;41.932;25.904;2022-12-10T02:05:17;100088.97;;;9.23;100.00
8705;BME280;4389;41.932;25.904;2022-12-10T02:07:59;100086.44;;;9.22;100.00
8705;BME280;4389;41.932;25.904;2022-12-10T02:10:41;100081.72;;;9.16;100.00
8705;BME280;4389;41.932;25.904;2022-12-10T02:13:14;100079.78;;;9.18;100.00
8705;BME280;4389;41.932;25.904;2022-12-10T02:15:49;100078.69;;;9.20;100.00
8705;BME280;4389;41.932;25.904;2022-12-10T02:18:20;100070.91;;;9.28;100.00
8705;BME280;4389;41.932;25.904;2022-12-10T02:20:49;100075.34;;;9.37;100.00
8705;BME280;4389;41.932;25.904;2022-12-10T02:23:22;100073.28;;;9.50;100.00
8705;BME280;4389;41.932;25.904;2022-12-10T02:25:56;100058.41;;;9.49;100.00
8705;BME280;4389;41.932;25.904;2022-12-10T02:28:32;100053.13;;;9.30;100.00
8705;BME280;4389;41.932;25.904;2022-12-10T02:31:03;100046.44;;;9.45;100.00
8705;BME280;4389;41.932;25.904;2022-12-10T02:33:32;100056.88;;;9.56;100.00
8705;BME280;4389;41.932;25.904;2022-12-10T02:36:02;100047.84;;;9.59;100.00
8705;BME280;4389;41.932;25.904;2022-12-10T02:38:32;100048.66;;;9.69;100.00
8705;BME280;4389;41.932;25.904;2022-12-10T02:41:03;100055.06;;;9.76;100.00
8705;BME280;4389;41.932;25.904;2022-12-10T02:43:32;100050.88;;;9.83;100.00
8705;BME280;4389;41.932;25.904;2022-12-10T02:46:03;100040.28;;;9.92;100.00
8705;BME280;4389;41.932;25.904;2022-12-10T02:48:33;100031.78;;;9.98;100.00
8705;BME280;4389;41.932;25.904;2022-12-10T02:51:02;100032.47;;;10.00;100.00
8705;BME280;4389;41.932;25.904;2022-12-10T02:53:29;100027.47;;;9.97;100.00
8705;BME280;4389;41.932;25.904;2022-12-10T02:56:06;100026.22;;;10.01;100.00
8705;BME280;4389;41.932;25.904;2022-12-10T02:58:43;100020.66;;;10.04;100.00
8705;BME280;4389;41.932;25.904;2022-12-10T03:01:21;100014.13;;;10.08;100.00
8705;BME280;4389;41.932;25.904;2022-12-10T03:03:55;100029.28;;;10.06;100.00
8705;BME280;4389;41.932;25.904;2022-12-10T03:06:27;100020.38;;;10.07;100.00
8705;BME280;4389;41.932;25.904;2022-12-10T03:09:01;100007.72;;;10.01;100.00
8705;BME280;4389;41.932;25.904;2022-12-10T03:11:30;100017.72;;;9.98;100.00
8705;BME280;4389;41.932;25.904;2022-12-10T03:14:00;100025.25;;;9.83;100.00
8705;BME280;4389;41.932;25.904;2022-12-10T03:16:34;100025.13;;;9.85;100.00
8705;BME280;4389;41.932;25.904;2022-12-10T03:19:04;100037.25;;;9.68;100.00
8705;BME280;4389;41.932;25.904;2022-12-10T03:21:33;100040.88;;;9.67;100.00
8705;BME280;4389;41.932;25.904;2022-12-10T03:24:02;100032.38;;;9.73;100.00
8705;BME280;4389;41.932;25.904;2022-12-10T03:26:30;100028.63;;;9.85;100.00
8705;BME280;4389;41.932;25.904;2022-12-10T03:29:01;100033.34;;;9.91;100.00
8705;BME280;4389;41.932;25.904;2022-12-10T03:31:31;100031.38;;;9.93;100.00
8705;BME280;4389;41.932;25.904;2022-12-10T03:34:00;100019.41;;;10.08;100.00
8705;BME280;4389;41.932;25.904;2022-12-10T03:36:29;100013.84;;;10.02;100.00
8705;BME280;4389;41.932;25.904;2022-12-10T03:38:57;100008.00;;;9.98;100.00
8705;BME280;4389;41.932;25.904;2022-12-10T03:41:24;100010.50;;;9.90;100.00
8705;BME280;4389;41.932;25.904;2022-12-10T03:43:53;100009.69;;;9.90;100.00
8705;BME280;4389;41.932;25.904;2022-12-10T03:46:20;100012.19;;;9.91;100.00
8705;BME280;4389;41.932;25.904;2022-12-10T03:48:49;100016.22;;;9.95;100.00
8705;BME280;4389;41.932;25.904;2022-12-10T03:51:16;100005.78;;;10.03;100.00
8705;BME280;4389;41.932;25.904;2022-12-10T03:53:43;100014.66;;;10.02;100.00
8705;BME280;4389;41.932;25.904;2022-12-10T03:56:10;100008.41;;;10.13;100.00
8705;BME280;4389;41.932;25.904;2022-12-10T03:58:37;100001.00;;;10.16;100.00
8705;BME280;4389;41.932;25.904;2022-12-10T04:01:04;100004.63;;;10.15;100.00
8705;BME280;4389;41.932;25.904;2022-12-10T04:03:34;99991.50;;;10.23;100.00
8705;BME280;4389;41.932;25.904;2022-12-10T04:06:03;99985.16;;;10.16;100.00
8705;BME280;4389;41.932;25.904;2022-12-10T04:08:30;99989.66;;;10.06;100.00
8705;BME280;4389;41.932;25.904;2022-12-10T04:11:02;99991.84;;;10.01;100.00
8705;BME280;4389;41.932;25.904;2022-12-10T04:13:31;100003.00;;;10.05;100.00
8705;BME280;4389;41.932;25.904;2022-12-10T04:16:16;100004.94;;;10.12;100.00
8705;BME280;4389;41.932;25.904;2022-12-10T04:18:56;99993.81;;;10.09;100.00
8705;BME280;4389;41.932;25.904;2022-12-10T04:21:25;99986.81;;;10.17;100.00
8705;BME280;4389;41.932;25.904;2022-12-10T04:24:10;99986.03;;;10.07;100.00
8705;BME280;4389;41.932;25.904;2022-12-10T04:26:56;99979.84;;;10.16;100.00
8705;BME280;4389;41.932;25.904;2022-12-10T04:29:25;99975.13;;;10.20;100.00
8705;BME280;4389;41.932;25.904;2022-12-10T04:31:53;99987.53;;;10.19;100.00
8705;BME280;4389;41.932;25.904;2022-12-10T04:34:20;99984.25;;;10.25;100.00
8705;BME280;4389;41.932;25.904;2022-12-10T04:36:49;99987.88;;;10.24;100.00
8705;BME280;4389;41.932;25.904;2022-12-10T04:39:16;99986.22;;;10.23;100.00
8705;BME280;4389;41.932;25.904;2022-12-10T04:41:45;99986.44;;;10.12;100.00
8705;BME280;4389;41.932;25.904;2022-12-10T04:44:12;99989.06;;;10.12;100.00
8705;BME280;4389;41.932;25.904;2022-12-10T04:46:39;99993.28;;;10.05;100.00
8705;BME280;4389;41.932;25.904;2022-12-10T04:49:06;99995.19;;;9.94;100.00
8705;BME280;4389;41.932;25.904;2022-12-10T04:51:33;99990.78;;;9.85;100.00
8705;BME280;4389;41.932;25.904;2022-12-10T04:54:02;99996.91;;;9.95;100.00
8705;BME280;4389;41.932;25.904;2022-12-10T04:56:29;99988.56;;;9.80;100.00
8705;BME280;4389;41.932;25.904;2022-12-10T04:58:56;99991.09;;;9.82;100.00
8705;BME280;4389;41.932;25.904;2022-12-10T05:01:24;99992.19;;;9.89;100.00
8705;BME280;4389;41.932;25.904;2022-12-10T05:03:51;99991.19;;;9.90;100.00
8705;BME280;4389;41.932;25.904;2022-12-10T05:06:19;99984.63;;;9.94;100.00
8705;BME280;4389;41.932;25.904;2022-12-10T05:08:46;99997.47;;;9.89;100.00
8705;BME280;4389;41.932;25.904;2022-12-10T05:11:16;99997.72;;;9.86;100.00
8705;BME280;4389;41.932;25.904;2022-12-10T05:13:44;99996.63;;;9.88;100.00
8705;BME280;4389;41.932;25.904;2022-12-10T05:16:12;99995.53;;;9.81;100.00
8705;BME280;4389;41.932;25.904;2022-12-10T05:18:39;99988.31;;;9.74;100.00
8705;BME280;4389;41.932;25.904;2022-12-10T05:21:09;99995.28;;;9.65;100.00
8705;BME280;4389;41.932;25.904;2022-12-10T05:23:37;99999.28;;;9.69;100.00
8705;BME280;4389;41.932;25.904;2022-12-10T05:26:06;99995.72;;;9.70;100.00
8705;BME280;4389;41.932;25.904;2022-12-10T05:28:37;99995.81;;;9.78;100.00
8705;BME280;4389;41.932;25.904;2022-12-10T05:31:04;99992.50;;;9.67;100.00
8705;BME280;4389;41.932;25.904;2022-12-10T05:33:31;100006.41;;;9.59;100.00
8705;BME280;4389;41.932;25.904;2022-12-10T05:36:00;100005.31;;;9.52;100.00
8705;BME280;4389;41.932;25.904;2022-12-10T05:38:28;99998.38;;;9.51;100.00
8705;BME280;4389;41.932;25.904;2022-12-10T05:41:01;100013.09;;;9.44;100.00
8705;BME280;4389;41.932;25.904;2022-12-10T05:43:28;100011.03;;;9.38;100.00
8705;BME280;4389;41.932;25.904;2022-12-10T05:46:00;100010.88;;;9.49;100.00
8705;BME280;4389;41.932;25.904;2022-12-10T05:48:27;100007.22;;;9.69;100.00
8705;BME280;4389;41.932;25.904;2022-12-10T05:50:54;100008.94;;;9.61;100.00
8705;BME280;4389;41.932;25.904;2022-12-10T05:53:21;100006.09;;;9.81;100.00
8705;BME280;4389;41.932;25.904;2022-12-10T05:55:48;100010.91;;;9.95;100.00
8705;BME280;4389;41.932;25.904;2022-12-10T05:58:15;99997.97;;;10.11;100.00
8705;BME280;4389;41.932;25.904;2022-12-10T06:00:42;100001.56;;;10.10;100.00
8705;BME280;4389;41.932;25.904;2022-12-10T06:03:10;99988.47;;;10.18;100.00
8705;BME280;4389;41.932;25.904;2022-12-10T06:05:37;99998.22;;;10.18;100.00
8705;BME280;4389;41.932;25.904;2022-12-10T06:08:05;99997.81;;;10.13;100.00
8705;BME280;4389;41.932;25.904;2022-12-10T06:10:34;99994.78;;;9.98;100.00
8705;BME280;4389;41.932;25.904;2022-12-10T06:13:01;99990.75;;;9.94;100.00
8705;BME280;4389;41.932;25.904;2022-12-10T06:15:29;99987.44;;;9.92;100.00
8705;BME280;4389;41.932;25.904;2022-12-10T06:17:56;99988.53;;;9.99;100.00
8705;BME280;4389;41.932;25.904;2022-12-10T06:20:25;99996.91;;;9.85;100.00
8705;BME280;4389;41.932;25.904;2022-12-10T06:22:52;100000.47;;;9.94;100.00
8705;BME280;4389;41.932;25.904;2022-12-10T06:25:19;99996.75;;;9.87;100.00
8705;BME280;4389;41.932;25.904;2022-12-10T06:27:46;99996.66;;;9.69;100.00
8705;BME280;4389;41.932;25.904;2022-12-10T06:30:13;99997.03;;;9.84;100.00
8705;BME280;4389;41.932;25.904;2022-12-10T06:32:40;100001.03;;;9.97;100.00
8705;BME280;4389;41.932;25.904;2022-12-10T06:35:08;99995.19;;;9.94;100.00
8705;BME280;4389;41.932;25.904;2022-12-10T06:37:37;100002.44;;;10.11;100.00
8705;BME280;4389;41.932;25.904;2022-12-10T06:40:05;99999.03;;;10.18;100.00
8705;BME280;4389;41.932;25.904;2022-12-10T06:42:32;99987.69;;;10.08;100.00
8705;BME280;4389;41.932;25.904;2022-12-10T06:44:59;99991.50;;;10.23;100.00
8705;BME280;4389;41.932;25.904;2022-12-10T06:47:26;100000.97;;;10.26;100.00
8705;BME280;4389;41.932;25.904;2022-12-10T06:49:54;100001.31;;;10.40;100.00
8705;BME280;4389;41.932;25.904;2022-12-10T06:52:21;100008.38;;;10.49;100.00
8705;BME280;4389;41.932;25.904;2022-12-10T06:54:49;100001.84;;;10.44;100.00
8705;BME280;4389;41.932;25.904;2022-12-10T06:57:16;100001.13;;;10.51;100.00
8705;BME280;4389;41.932;25.904;2022-12-10T06:59:43;100002.78;;;10.52;100.00
8705;BME280;4389;41.932;25.904;2022-12-10T07:02:10;99995.91;;;10.32;100.00
8705;BME280;4389;41.932;25.904;2022-12-10T07:04:36;99997.72;;;10.41;100.00
8705;BME280;4389;41.932;25.904;2022-12-10T07:07:04;100002.38;;;10.74;100.00
8705;BME280;4389;41.932;25.904;2022-12-10T07:09:32;100004.94;;;10.66;100.00
8705;BME280;4389;41.932;25.904;2022-12-10T07:12:00;100003.09;;;10.76;100.00
8705;BME280;4389;41.932;25.904;2022-12-10T07:14:28;100001.41;;;10.93;100.00
8705;BME280;4389;41.932;25.904;2022-12-10T07:16:54;99995.31;;;10.92;100.00
8705;BME280;4389;41.932;25.904;2022-12-10T07:19:22;99994.41;;;11.01;100.00
8705;BME280;4389;41.932;25.904;2022-12-10T07:21:49;99994.09;;;11.04;100.00
8705;BME280;4389;41.932;25.904;2022-12-10T07:24:17;99994.00;;;11.14;100.00
8705;BME280;4389;41.932;25.904;2022-12-10T07:26:45;99981.81;;;11.38;100.00
8705;BME280;4389;41.932;25.904;2022-12-10T07:29:16;99987.19;;;11.46;100.00
8705;BME280;4389;41.932;25.904;2022-12-10T07:31:44;99978.16;;;11.57;100.00
8705;BME280;4389;41.932;25.904;2022-12-10T07:34:11;99978.75;;;11.68;100.00
8705;BME280;4389;41.932;25.904;2022-12-10T07:36:39;99988.47;;;11.77;100.00
8705;BME280;4389;41.932;25.904;2022-12-10T07:39:08;99983.16;;;11.77;100.00
8705;BME280;4389;41.932;25.904;2022-12-10T07:41:35;99965.47;;;11.86;100.00
8705;BME280;4389;41.932;25.904;2022-12-10T07:44:03;99956.31;;;11.80;100.00
8705;BME280;4389;41.932;25.904;2022-12-10T07:46:33;99966.19;;;11.96;100.00
8705;BME280;4389;41.932;25.904;2022-12-10T07:49:01;99961.72;;;11.96;100.00
8705;BME280;4389;41.932;25.904;2022-12-10T07:51:29;99965.81;;;12.16;100.00
8705;BME280;4389;41.932;25.904;2022-12-10T07:53:56;99957.28;;;12.38;100.00
8705;BME280;4389;41.932;25.904;2022-12-10T07:56:23;99957.03;;;12.65;100.00
8705;BME280;4389;41.932;25.904;2022-12-10T07:58:51;99939.38;;;12.98;100.00
8705;BME280;4389;41.932;25.904;2022-12-10T08:01:23;99936.91;;;13.04;98.42
8705;BME280;4389;41.932;25.904;2022-12-10T08:03:52;99939.41;;;13.30;97.76
8705;BME280;4389;41.932;25.904;2022-12-10T08:06:22;99929.56;;;13.46;97.01
8705;BME280;4389;41.932;25.904;2022-12-10T08:08:49;99934.22;;;13.68;95.91
8705;BME280;4389;41.932;25.904;2022-12-10T08:11:18;99929.19;;;13.73;95.20
8705;BME280;4389;41.932;25.904;2022-12-10T08:13:45;99933.38;;;13.68;95.07
8705;BME280;4389;41.932;25.904;2022-12-10T08:16:14;99917.59;;;13.58;96.28
8705;BME280;4389;41.932;25.904;2022-12-10T08:18:42;99916.13;;;13.48;97.30
8705;BME280;4389;41.932;25.904;2022-12-10T08:21:12;99914.47;;;13.47;97.69
8705;BME280;4389;41.932;25.904;2022-12-10T08:23:41;99907.69;;;13.20;98.22
8705;BME280;4389;41.932;25.904;2022-12-10T08:26:09;99918.63;;;13.17;100.00
8705;BME280;4389;41.932;25.904;2022-12-10T08:28:37;99914.63;;;13.37;100.00
8705;BME280;4389;41.932;25.904;2022-12-10T08:31:04;99904.47;;;13.57;100.00
8705;BME280;4389;41.932;25.904;2022-12-10T08:33:32;99902.47;;;13.67;99.97
8705;BME280;4389;41.932;25.904;2022-12-10T08:36:00;99903.09;;;13.76;100.00
8705;BME280;4389;41.932;25.904;2022-12-10T08:38:29;99896.09;;;13.83;100.00
8705;BME280;4389;41.932;25.904;2022-12-10T08:40:56;99889.97;;;13.83;100.00
8705;BME280;4389;41.932;25.904;2022-12-10T08:43:23;99894.63;;;13.89;100.00
8705;BME280;4389;41.932;25.904;2022-12-10T08:45:51;99892.19;;;14.10;100.00
8705;BME280;4389;41.932;25.904;2022-12-10T08:48:18;99885.53;;;14.14;100.00
8705;BME280;4389;41.932;25.904;2022-12-10T08:50:45;99890.03;;;14.21;100.00
8705;BME280;4389;41.932;25.904;2022-12-10T08:53:12;99891.59;;;14.38;100.00
8705;BME280;4389;41.932;25.904;2022-12-10T08:55:40;99886.75;;;14.42;100.00
8705;BME280;4389;41.932;25.904;2022-12-10T08:58:08;99875.34;;;15.01;99.03
8705;BME280;4389;41.932;25.904;2022-12-10T09:00:35;99889.78;;;15.95;92.59
8705;BME280;4389;41.932;25.904;2022-12-10T09:03:03;99877.75;;;16.49;89.71
8705;BME280;4389;41.932;25.904;2022-12-10T09:05:30;99886.28;;;16.94;87.26
8705;BME280;4389;41.932;25.904;2022-12-10T09:07:57;99879.06;;;17.37;83.87
8705;BME280;4389;41.932;25.904;2022-12-10T09:10:24;99866.91;;;17.62;82.99
8705;BME280;4389;41.932;25.904;2022-12-10T09:12:52;99875.28;;;17.86;81.21
8705;BME280;4389;41.932;25.904;2022-12-10T09:15:19;99885.44;;;17.97;80.71
8705;BME280;4389;41.932;25.904;2022-12-10T09:17:46;99872.53;;;18.14;79.31
8705;BME280;4389;41.932;25.904;2022-12-10T09:20:14;99878.38;;;18.24;79.00
8705;BME280;4389;41.932;25.904;2022-12-10T09:22:41;99863.53;;;18.28;78.90
8705;BME280;4389;41.932;25.904;2022-12-10T09:25:08;99867.53;;;18.32;78.12
8705;BME280;4389;41.932;25.904;2022-12-10T09:27:36;99866.91;;;18.36;78.50
8705;BME280;4389;41.932;25.904;2022-12-10T09:30:06;99852.09;;;18.47;77.96
8705;BME280;4389;41.932;25.904;2022-12-10T09:32:33;99848.03;;;18.64;77.77
8705;BME280;4389;41.932;25.904;2022-12-10T09:35:00;99835.69;;;18.76;76.48
8705;BME280;4389;41.932;25.904;2022-12-10T09:37:27;99817.75;;;18.83;76.69
8705;BME280;4389;41.932;25.904;2022-12-10T09:39:53;99815.69;;;18.78;74.96
8705;BME280;4389;41.932;25.904;2022-12-10T09:42:30;99802.09;;;18.80;75.31
8705;BME280;4389;41.932;25.904;2022-12-10T09:45:07;99793.53;;;18.37;76.99
8705;BME280;4389;41.932;25.904;2022-12-10T09:47:42;99802.19;;;18.39;77.24
8705;BME280;4389;41.932;25.904;2022-12-10T09:50:19;99802.25;;;18.59;75.74
8705;BME280;4389;41.932;25.904;2022-12-10T09:52:47;99791.97;;;18.94;75.08
8705;BME280;4389;41.932;25.904;2022-12-10T09:55:18;99790.75;;;19.16;73.10
8705;BME280;4389;41.932;25.904;2022-12-10T09:57:48;99780.44;;;19.26;72.86
8705;BME280;4389;41.932;25.904;2022-12-10T10:00:21;99787.03;;;19.30;72.02
8705;BME280;4389;41.932;25.904;2022-12-10T10:02:49;99778.38;;;19.22;72.65
8705;BME280;4389;41.932;25.904;2022-12-10T10:05:20;99774.03;;;19.14;72.42
8705;BME280;4389;41.932;25.904;2022-12-10T10:07:52;99770.09;;;19.10;73.25
8705;BME280;4389;41.932;25.904;2022-12-10T10:10:24;99766.19;;;19.00;72.91
8705;BME280;4389;41.932;25.904;2022-12-10T10:12:53;99760.19;;;18.91;73.57
8705;BME280;4389;41.932;25.904;2022-12-10T10:15:26;99763.09;;;18.90;73.55
8705;BME280;4389;41.932;25.904;2022-12-10T10:17:57;99758.75;;;18.89;74.06
8705;BME280;4389;41.932;25.904;2022-12-10T10:20:24;99756.06;;;18.89;73.31
8705;BME280;4389;41.932;25.904;2022-12-10T10:22:52;99749.88;;;18.95;73.56
8705;BME280;4389;41.932;25.904;2022-12-10T10:25:20;99740.59;;;18.97;73.52
8705;BME280;4389;41.932;25.904;2022-12-10T10:27:46;99736.06;;;18.91;72.96
8705;BME280;4389;41.932;25.904;2022-12-10T10:30:15;99737.94;;;18.84;73.17
8705;BME280;4389;41.932;25.904;2022-12-10T10:32:52;99736.28;;;18.77;73.37
8705;BME280;4389;41.932;25.904;2022-12-10T10:35:25;99737.53;;;18.75;73.82
8705;BME280;4389;41.932;25.904;2022-12-10T10:37:56;99726.19;;;18.73;74.94
8705;BME280;4389;41.932;25.904;2022-12-10T10:40:27;99732.97;;;18.75;75.02
8705;BME280;4389;41.932;25.904;2022-12-10T10:42:56;99713.19;;;18.70;74.16
8705;BME280;4389;41.932;25.904;2022-12-10T10:45:47;99709.28;;;18.66;74.28
8705;BME280;4389;41.932;25.904;2022-12-10T10:48:19;99711.53;;;18.56;74.86
8705;BME280;4389;41.932;25.904;2022-12-10T10:50:47;99701.25;;;18.53;75.28
8705;BME280;4389;41.932;25.904;2022-12-10T10:53:42;99694.63;;;18.49;75.76
8705;BME280;4389;41.932;25.904;2022-12-10T10:56:12;99691.13;;;18.42;75.51
8705;BME280;4389;41.932;25.904;2022-12-10T10:58:56;99685.97;;;18.47;75.86
8705;BME280;4389;41.932;25.904;2022-12-10T11:01:25;99693.81;;;18.55;75.61
8705;BME280;4389;41.932;25.904;2022-12-10T11:03:57;99691.34;;;18.60;75.79
8705;BME280;4389;41.932;25.904;2022-12-10T11:06:25;99694.44;;;18.63;75.89
8705;BME280;4389;41.932;25.904;2022-12-10T11:08:57;99690.72;;;18.58;76.14
8705;BME280;4389;41.932;25.904;2022-12-10T11:11:31;99695.47;;;18.69;76.45
8705;BME280;4389;41.932;25.904;2022-12-10T11:14:13;99695.03;;;18.78;76.39
8705;BME280;4389;41.932;25.904;2022-12-10T11:16:40;99686.19;;;18.84;74.93
8705;BME280;4389;41.932;25.904;2022-12-10T11:19:19;99690.31;;;18.87;75.52
8705;BME280;4389;41.932;25.904;2022-12-10T11:21:46;99693.38;;;18.96;74.12
8705;BME280;4389;41.932;25.904;2022-12-10T11:24:17;99686.34;;;19.02;71.87
8705;BME280;4389;41.932;25.904;2022-12-10T11:27:00;99686.34;;;19.08;70.55
8705;BME280;4389;41.932;25.904;2022-12-10T11:29:43;99683.63;;;19.15;69.51
8705;BME280;4389;41.932;25.904;2022-12-10T11:32:23;99685.91;;;19.24;68.67
8705;BME280;4389;41.932;25.904;2022-12-10T11:35:05;99685.06;;;19.30;68.25
8705;BME280;4389;41.932;25.904;2022-12-10T11:37:38;99668.53;;;19.33;66.96
8705;BME280;4389;41.932;25.904;2022-12-10T11:40:32;99673.91;;;19.33;67.42
8705;BME280;4389;41.932;25.904;2022-12-10T11:43:08;99665.84;;;19.33;67.97
8705;BME280;4389;41.932;25.904;2022-12-10T11:45:50;99655.38;;;19.25;68.30
8705;BME280;4389;41.932;25.904;2022-12-10T11:48:29;99641.50;;;19.28;67.29
8705;BME280;4389;41.932;25.904;2022-12-10T11:51:03;99623.16;;;19.25;67.22
8705;BME280;4389;41.932;25.904;2022-12-10T11:53:50;99614.47;;;19.30;67.00
8705;BME280;4389;41.932;25.904;2022-12-10T11:56:23;99614.88;;;19.33;66.76
8705;BME280;4389;41.932;25.904;2022-12-10T11:59:08;99613.00;;;19.40;66.55
8705;BME280;4389;41.932;25.904;2022-12-10T12:01:57;99619.34;;;19.46;66.27
8705;BME280;4389;41.932;25.904;2022-12-10T12:04:38;99617.47;;;19.53;67.16
8705;BME280;4389;41.932;25.904;2022-12-10T12:07:20;99603.19;;;19.59;66.55
8705;BME280;4389;41.932;25.904;2022-12-10T12:12:45;99618.03;;;19.61;65.02
8705;BME280;4389;41.932;25.904;2022-12-10T12:15:20;99618.84;;;19.68;65.51
8705;BME280;4389;41.932;25.904;2022-12-10T12:17:53;99614.69;;;19.72;64.96
8705;BME280;4389;41.932;25.904;2022-12-10T12:20:27;99611.31;;;19.83;64.75
8705;BME280;4389;41.932;25.904;2022-12-10T12:22:59;99619.28;;;19.96;64.42
8705;BME280;4389;41.932;25.904;2022-12-10T12:25:32;99619.81;;;20.11;64.42
8705;BME280;4389;41.932;25.904;2022-12-10T12:28:05;99612.97;;;20.15;63.10
8705;BME280;4389;41.932;25.904;2022-12-10T12:30:37;99602.84;;;20.17;62.44
8705;BME280;4389;41.932;25.904;2022-12-10T12:33:10;99606.34;;;20.18;62.25
8705;BME280;4389;41.932;25.904;2022-12-10T12:35:41;99601.69;;;20.31;62.45
8705;BME280;4389;41.932;25.904;2022-12-10T12:38:22;99609.91;;;20.36;62.40
8705;BME280;4389;41.932;25.904;2022-12-10T12:40:53;99602.63;;;20.43;61.49
8705;BME280;4389;41.932;25.904;2022-12-10T12:43:25;99603.22;;;20.45;61.21
8705;BME280;4389;41.932;25.904;2022-12-10T12:45:55;99585.16;;;20.52;61.49
8705;BME280;4389;41.932;25.904;2022-12-10T12:48:26;99592.19;;;20.53;61.23
8705;BME280;4389;41.932;25.904;2022-12-10T12:51:00;99582.19;;;20.60;61.20
8705;BME280;4389;41.932;25.904;2022-12-10T12:53:29;99564.41;;;20.59;60.45
8705;BME280;4389;41.932;25.904;2022-12-10T12:55:59;99590.84;;;20.62;60.48
8705;BME280;4389;41.932;25.904;2022-12-10T12:58:35;99573.94;;;20.55;60.38
8705;BME280;4389;41.932;25.904;2022-12-10T13:01:12;99571.56;;;20.47;59.72
8705;BME280;4389;41.932;25.904;2022-12-10T13:03:44;99560.13;;;20.34;60.14
8705;BME280;4389;41.932;25.904;2022-12-10T13:06:19;99564.34;;;20.23;60.48
8705;BME280;4389;41.932;25.904;2022-12-10T13:08:52;99567.59;;;20.32;61.08
8705;BME280;4389;41.932;25.904;2022-12-10T13:11:31;99550.63;;;20.31;60.51
8705;BME280;4389;41.932;25.904;2022-12-10T13:14:10;99559.78;;;20.24;60.34
8705;BME280;4389;41.932;25.904;2022-12-10T13:16:58;99566.44;;;20.21;61.44
8705;BME280;4389;41.932;25.904;2022-12-10T13:19:30;99556.56;;;20.15;63.23
8705;BME280;4389;41.932;25.904;2022-12-10T13:21:59;99559.91;;;20.04;63.75
8705;BME280;4389;41.932;25.904;2022-12-10T13:24:47;99564.50;;;19.97;64.31